createdAt,value
2019-01-08T00:01:46.916Z,85.07
2019-01-08T00:06:49.814Z,85.07
2019-01-08T00:11:52.099Z,85.07
2019-01-08T00:16:54.542Z,85.08
2019-01-08T00:21:56.745Z,85.14
2019-01-08T00:26:59.264Z,85.06
2019-01-08T00:32:01.456Z,85.16
2019-01-08T00:37:04.434Z,85.10
2019-01-08T00:42:06.616Z,85.13
2019-01-08T00:47:08.829Z,85.20
2019-01-08T00:52:11.212Z,85.15
2019-01-08T00:57:14.559Z,85.05
2019-01-08T01:02:17.245Z,85.11
2019-01-08T01:07:19.449Z,85.19
2019-01-08T01:12:21.879Z,85.18
2019-01-08T01:17:24.047Z,85.26
2019-01-08T01:22:26.401Z,85.30
2019-01-08T01:27:28.811Z,85.36
2019-01-08T01:32:31.451Z,85.38
2019-01-08T01:37:34.576Z,85.37
2019-01-08T01:42:36.776Z,85.32
2019-01-08T01:47:39.440Z,85.35
2019-01-08T01:52:42.365Z,85.29
2019-01-08T01:57:45.002Z,85.16
2019-01-08T02:02:47.447Z,85.10
2019-01-08T02:07:50.231Z,84.82
2019-01-08T02:12:52.507Z,84.63
2019-01-08T02:17:54.899Z,84.67
2019-01-08T02:22:57.084Z,84.68
2019-01-08T02:28:00.290Z,84.46
2019-01-08T02:33:02.662Z,84.49
2019-01-08T02:38:05.560Z,84.37
2019-01-08T02:43:07.728Z,84.54
2019-01-08T02:48:10.430Z,84.55
2019-01-08T02:53:12.577Z,84.79
2019-01-08T02:58:14.743Z,84.98
2019-01-08T03:03:17.641Z,84.97
2019-01-08T03:08:20.168Z,84.97
2019-01-08T03:13:22.306Z,85.03
2019-01-08T03:18:24.757Z,84.96
2019-01-08T03:23:27.649Z,84.66
2019-01-08T03:28:30.553Z,84.50
2019-01-08T03:33:32.711Z,84.56
2019-01-08T03:38:34.889Z,84.46
2019-01-08T03:43:37.058Z,84.35
2019-01-08T03:48:39.264Z,84.17
2019-01-08T03:53:41.921Z,84.12
2019-01-08T03:58:44.072Z,84.04
2019-01-08T04:03:47.240Z,84.03
2019-01-08T04:08:50.095Z,83.82
2019-01-08T04:13:52.283Z,83.62
2019-01-08T04:18:55.188Z,83.54
2019-01-08T04:23:57.611Z,83.46
2019-01-08T04:29:00.267Z,83.55
2019-01-08T04:34:03.227Z,83.60
2019-01-08T04:39:05.558Z,83.36
2019-01-08T04:44:07.797Z,83.38
2019-01-08T04:49:09.989Z,83.42
2019-01-08T04:54:12.870Z,83.38
2019-01-08T04:59:15.075Z,83.33
2019-01-08T05:04:17.506Z,83.15
2019-01-08T05:09:20.542Z,82.90
2019-01-08T05:14:23.013Z,82.75
2019-01-08T05:19:25.195Z,82.40
2019-01-08T05:24:27.639Z,82.28
2019-01-08T05:29:29.816Z,82.20
2019-01-08T05:34:32.032Z,82.14
2019-01-08T05:39:34.478Z,82.12
2019-01-08T05:44:36.698Z,81.99
2019-01-08T05:49:39.358Z,81.72
2019-01-08T05:54:41.535Z,81.44
2019-01-08T05:59:44.365Z,81.20
2019-01-08T06:04:46.763Z,81.05
2019-01-08T06:09:49.142Z,80.95
2019-01-08T06:14:51.697Z,80.75
2019-01-08T06:19:55.206Z,80.44
2019-01-08T06:24:57.878Z,80.38
2019-01-08T06:30:01.162Z,80.24
2019-01-08T06:35:04.617Z,80.17
2019-01-08T06:40:06.948Z,80.10
2019-01-08T06:45:09.451Z,80.15
2019-01-08T06:50:12.009Z,80.20
2019-01-08T06:55:15.135Z,80.14
2019-01-08T07:00:18.793Z,80.31
2019-01-08T07:05:21.813Z,80.07
2019-01-08T07:10:24.477Z,79.96
2019-01-08T07:15:27.179Z,79.54
2019-01-08T07:20:29.363Z,79.47
2019-01-08T07:25:31.660Z,79.24
2019-01-08T07:30:41.266Z,79.02
2019-01-08T07:35:37.994Z,79.10
2019-01-08T07:40:41.422Z,79.03
2019-01-08T07:45:43.758Z,79.38
2019-01-08T07:50:47.213Z,79.39
2019-01-08T07:55:49.387Z,79.40
2019-01-08T08:00:51.547Z,79.35
2019-01-08T08:05:53.684Z,79.53
2019-01-08T08:10:56.363Z,79.95
2019-01-08T08:15:58.988Z,80.71
2019-01-08T08:21:01.657Z,80.86
2019-01-08T08:26:03.919Z,81.26
2019-01-08T08:31:06.504Z,81.24
2019-01-08T08:36:08.733Z,81.28
2019-01-08T08:41:10.916Z,81.31
2019-01-08T08:46:14.059Z,81.16
2019-01-08T08:51:16.256Z,81.49
2019-01-08T08:56:19.006Z,81.74
2019-01-08T09:01:21.722Z,82.00
2019-01-08T09:06:24.405Z,81.87
2019-01-08T09:11:27.237Z,81.68
2019-01-08T09:16:29.738Z,81.87
2019-01-08T09:21:32.298Z,81.69
2019-01-08T09:26:35.289Z,81.92
2019-01-08T09:31:37.905Z,81.99
2019-01-08T09:36:40.609Z,82.01
2019-01-08T09:41:42.773Z,81.95
2019-01-08T09:46:44.949Z,82.16
2019-01-08T09:51:47.716Z,81.83
2019-01-08T09:56:50.156Z,81.72
2019-01-08T10:01:52.635Z,81.72
2019-01-08T10:06:55.307Z,81.81
2019-01-08T10:11:58.215Z,81.67
2019-01-08T10:17:00.846Z,82.01
2019-01-08T10:22:03.368Z,82.14
2019-01-08T10:27:05.844Z,81.90
2019-01-08T10:32:08.382Z,81.67
2019-01-08T10:37:11.059Z,81.78
2019-01-08T10:42:13.727Z,81.99
2019-01-08T10:47:16.486Z,82.01
2019-01-08T10:52:18.647Z,82.16
2019-01-08T10:57:20.772Z,81.99
2019-01-08T11:02:23.648Z,81.72
2019-01-08T11:07:26.296Z,82.19
2019-01-08T11:12:29.680Z,82.25
2019-01-08T11:17:31.958Z,82.23
2019-01-08T11:22:34.150Z,82.38
2019-01-08T11:27:37.764Z,82.26
2019-01-08T11:32:39.973Z,82.32
2019-01-08T11:37:42.358Z,82.29
2019-01-08T11:42:44.791Z,82.23
2019-01-08T11:47:47.909Z,82.32
2019-01-08T11:52:50.516Z,82.35
2019-01-08T11:57:53.213Z,82.55
2019-01-08T12:02:55.665Z,82.37
2019-01-08T12:07:58.127Z,82.41
2019-01-08T12:13:02.263Z,82.31
2019-01-08T12:18:05.246Z,82.40
2019-01-08T12:23:13.963Z,82.56
2019-01-08T12:28:16.301Z,82.59
2019-01-08T12:33:18.489Z,82.69
2019-01-08T12:38:20.701Z,82.56
2019-01-08T12:43:23.059Z,82.65
2019-01-08T12:48:25.195Z,82.58
2019-01-08T12:53:27.603Z,82.54
2019-01-08T12:58:30.040Z,82.56
2019-01-08T13:03:32.473Z,82.40
2019-01-08T13:08:34.930Z,82.43
2019-01-08T13:13:37.296Z,82.37
2019-01-08T13:18:39.928Z,82.26
2019-01-08T13:23:43.076Z,82.19
2019-01-08T13:28:45.445Z,82.08
2019-01-08T13:33:47.799Z,82.04
2019-01-08T13:38:50.628Z,81.87
2019-01-08T13:43:56.107Z,81.75
2019-01-08T13:48:58.726Z,81.68
2019-01-08T13:54:01.228Z,81.39
2019-01-08T13:59:03.515Z,81.25
2019-01-08T14:04:05.934Z,81.05
2019-01-08T14:09:08.343Z,80.99
2019-01-08T14:14:10.734Z,81.03
2019-01-08T14:19:13.682Z,81.03
2019-01-08T14:24:16.371Z,80.75
2019-01-08T14:29:19.067Z,80.74
2019-01-08T14:34:22.031Z,80.65
2019-01-08T14:39:24.501Z,80.67
2019-01-08T14:44:27.438Z,80.62
2019-01-08T14:49:30.318Z,80.51
2019-01-08T14:54:32.464Z,80.20
2019-01-08T14:59:34.672Z,79.88
2019-01-08T15:04:37.553Z,79.98
2019-01-08T15:09:39.705Z,79.78
2019-01-08T15:14:42.622Z,79.56
2019-01-08T15:19:45.762Z,79.54
2019-01-08T15:24:47.936Z,79.56
2019-01-08T15:29:50.441Z,79.57
2019-01-08T15:34:53.621Z,79.61
2019-01-08T15:39:56.774Z,79.55
2019-01-08T15:44:59.133Z,79.59
2019-01-08T15:50:01.362Z,79.35
2019-01-08T15:55:04.465Z,79.59
2019-01-08T16:00:08.312Z,79.14
2019-01-08T16:05:11.155Z,79.25
2019-01-08T16:10:13.802Z,79.45
2019-01-08T16:15:15.947Z,79.57
2019-01-08T16:20:18.186Z,79.62
2019-01-08T16:25:20.827Z,79.39
2019-01-08T16:30:23.235Z,79.45
2019-01-08T16:35:25.400Z,79.41
2019-01-08T16:40:27.724Z,78.42
2019-01-08T16:45:30.139Z,78.40
2019-01-08T16:50:33.099Z,78.73
2019-01-08T16:55:35.232Z,78.46
2019-01-08T17:00:37.426Z,78.21
2019-01-08T17:05:39.670Z,78.13
2019-01-08T17:10:41.938Z,77.71
2019-01-08T17:15:44.850Z,77.33
2019-01-08T17:20:47.075Z,77.12
2019-01-08T17:25:50.066Z,76.89
2019-01-08T17:30:52.186Z,76.75
2019-01-08T17:35:54.464Z,76.69
2019-01-08T17:40:56.640Z,76.29
2019-01-08T17:45:59.113Z,75.76
2019-01-08T17:51:01.538Z,75.81
2019-01-08T17:56:03.758Z,75.56
2019-01-08T18:01:25.384Z,75.63
2019-01-08T18:06:27.619Z,75.42
2019-01-08T18:11:29.681Z,74.87
2019-01-08T18:16:32.850Z,74.48
2019-01-08T18:21:34.972Z,74.41
2019-01-08T18:26:39.269Z,74.51
2019-01-08T18:31:41.435Z,74.73
2019-01-08T18:36:43.762Z,75.08
2019-01-08T18:41:47.563Z,75.14
2019-01-08T18:46:49.958Z,75.57
2019-01-08T18:51:52.359Z,75.92
2019-01-08T18:56:54.787Z,76.13
2019-01-08T19:01:56.949Z,76.17
2019-01-08T19:06:59.058Z,76.38
2019-01-08T19:12:01.625Z,76.51
2019-01-08T19:17:04.045Z,76.64
2019-01-08T19:22:06.603Z,76.97
2019-01-08T19:27:08.767Z,77.30
2019-01-08T19:32:11.293Z,77.44
2019-01-08T19:37:13.503Z,77.54
2019-01-08T19:42:16.396Z,77.46
2019-01-08T19:47:18.583Z,77.61
2019-01-08T19:52:21.750Z,77.77
2019-01-08T19:57:23.925Z,77.78
2019-01-08T20:02:26.488Z,77.72
2019-01-08T20:07:28.942Z,77.88
2019-01-08T20:12:31.644Z,77.73
2019-01-08T20:17:34.170Z,77.42
2019-01-08T20:22:36.852Z,77.37
2019-01-08T20:27:39.840Z,77.21
2019-01-08T20:32:41.973Z,77.40
2019-01-08T20:37:44.365Z,77.69
2019-01-08T20:42:46.755Z,77.68
2019-01-08T20:47:48.909Z,77.72
2019-01-08T20:52:51.153Z,77.68
2019-01-08T20:57:53.329Z,77.70
2019-01-08T21:02:55.736Z,77.97
2019-01-08T21:07:58.422Z,77.47
2019-01-08T21:13:01.281Z,77.77
2019-01-08T21:18:03.445Z,77.90
2019-01-08T21:23:05.705Z,77.97
2019-01-08T21:28:07.872Z,77.96
2019-01-08T21:33:10.508Z,78.13
2019-01-08T21:38:13.437Z,78.32
2019-01-08T21:43:15.911Z,78.40
2019-01-08T21:48:18.085Z,78.55
2019-01-08T21:53:20.260Z,78.58
2019-01-08T21:58:23.268Z,78.24
2019-01-08T22:03:25.436Z,78.53
2019-01-08T22:08:28.078Z,78.50
2019-01-08T22:13:30.252Z,78.50
2019-01-08T22:18:33.129Z,78.55
2019-01-08T22:23:35.751Z,78.28
2019-01-08T22:28:38.210Z,78.58
2019-01-08T22:33:40.608Z,78.55
2019-01-08T22:38:43.015Z,78.66
2019-01-08T22:43:45.298Z,78.55
2019-01-08T22:48:47.585Z,78.41
2019-01-08T22:53:49.848Z,78.62
2019-01-08T22:58:52.507Z,78.27
2019-01-08T23:03:55.414Z,78.29
2019-01-08T23:08:58.063Z,78.54
2019-01-08T23:14:00.404Z,78.27
2019-01-08T23:19:02.731Z,78.47
2019-01-08T23:24:04.923Z,78.51
2019-01-08T23:29:07.099Z,78.33
2019-01-08T23:34:10.729Z,78.46
2019-01-08T23:39:13.198Z,78.42
2019-01-08T23:44:16.207Z,78.49
2019-01-08T23:49:19.871Z,78.36
2019-01-08T23:54:24.910Z,78.15
2019-01-08T23:59:27.522Z,78.65
